createdAt,value
2018-12-17T00:02:25.090Z,27.67
2018-12-17T00:04:51.814Z,30.35
2018-12-17T00:07:18.531Z,31.15
2018-12-17T00:09:45.242Z,30.02
2018-12-17T00:12:16.513Z,30.92
2018-12-17T00:14:40.701Z,31.50
2018-12-17T00:17:07.399Z,30.30
2018-12-17T00:19:34.150Z,30.65
2018-12-17T00:22:00.851Z,32.88
2018-12-17T00:24:27.553Z,31.50
2018-12-17T00:26:54.272Z,31.30
2018-12-17T00:29:20.972Z,29.27
2018-12-17T00:31:47.713Z,30.35
2018-12-17T00:34:14.423Z,29.85
2018-12-17T00:36:41.130Z,31.40
2018-12-17T00:39:07.870Z,30.65
2018-12-17T00:41:34.615Z,30.43
2018-12-17T00:44:01.371Z,29.70
2018-12-17T00:46:28.146Z,28.80
2018-12-17T00:48:54.948Z,28.27
2018-12-17T00:51:21.881Z,31.75
2018-12-17T00:53:48.633Z,29.95
2018-12-17T00:56:15.351Z,30.80
2018-12-17T00:58:42.078Z,29.15
2018-12-17T01:01:08.848Z,26.27
2018-12-17T01:03:35.587Z,27.30
2018-12-17T01:06:02.299Z,29.05
2018-12-17T01:08:29.160Z,28.85
2018-12-17T01:10:55.951Z,27.37
2018-12-17T01:13:22.655Z,30.82
2018-12-17T01:15:49.493Z,30.60
2018-12-17T01:18:16.184Z,29.52
2018-12-17T01:20:42.886Z,30.37
2018-12-17T01:23:09.626Z,29.95
2018-12-17T01:25:36.339Z,27.48
2018-12-17T01:28:03.089Z,27.00
2018-12-17T01:30:29.803Z,29.57
2018-12-17T01:32:56.567Z,28.73
2018-12-17T01:35:23.274Z,29.27
2018-12-17T01:37:49.993Z,30.95
2018-12-17T01:40:16.808Z,30.10
2018-12-17T01:42:43.509Z,28.70
2018-12-17T01:45:10.255Z,27.67
2018-12-17T01:47:37.380Z,29.92
2018-12-17T01:50:05.013Z,31.33
2018-12-17T01:52:32.256Z,30.25
2018-12-17T01:54:59.787Z,29.65
2018-12-17T01:57:26.657Z,27.55
2018-12-17T01:59:53.362Z,29.35
2018-12-17T02:02:20.091Z,28.40
2018-12-17T02:04:46.801Z,31.12
2018-12-17T02:07:14.482Z,28.60
2018-12-17T02:09:42.054Z,30.55
2018-12-17T02:12:08.764Z,28.20
2018-12-17T02:14:35.479Z,30.00
2018-12-17T02:17:02.175Z,29.23
2018-12-17T02:19:28.891Z,31.70
2018-12-17T02:21:55.605Z,30.05
2018-12-17T02:24:22.302Z,31.27
2018-12-17T02:26:49.045Z,32.45
2018-12-17T02:29:15.785Z,31.02
2018-12-17T02:31:42.487Z,30.65
2018-12-17T02:34:09.202Z,31.62
2018-12-17T02:36:36.313Z,31.12
2018-12-17T02:39:06.028Z,31.90
2018-12-17T02:41:33.001Z,32.00
2018-12-17T02:44:00.565Z,30.72
2018-12-17T02:46:28.521Z,32.33
2018-12-17T02:48:55.353Z,34.03
2018-12-17T02:51:22.205Z,32.53
2018-12-17T02:53:49.117Z,30.60
2018-12-17T02:56:16.227Z,31.50
2018-12-17T02:58:44.140Z,31.82
2018-12-17T03:01:11.120Z,32.15
2018-12-17T03:03:37.854Z,31.37
2018-12-17T03:06:04.610Z,32.90
2018-12-17T03:08:31.839Z,32.83
2018-12-17T03:10:58.724Z,33.65
2018-12-17T03:13:25.727Z,31.70
2018-12-17T03:15:52.813Z,32.48
2018-12-17T03:18:19.877Z,31.82
2018-12-17T03:20:46.709Z,30.02
2018-12-17T03:23:13.590Z,31.85
2018-12-17T03:25:40.445Z,31.35
2018-12-17T03:28:07.576Z,29.70
2018-12-17T03:30:34.803Z,29.55
2018-12-17T03:33:01.711Z,29.72
2018-12-17T03:35:28.478Z,30.97
2018-12-17T03:37:55.399Z,29.70
2018-12-17T03:40:22.184Z,30.00
2018-12-17T03:42:48.917Z,29.02
2018-12-17T03:45:15.926Z,27.32
2018-12-17T03:47:42.630Z,28.57
2018-12-17T03:50:09.380Z,26.65
2018-12-17T03:52:36.121Z,27.27
2018-12-17T03:55:03.135Z,23.80
2018-12-17T03:57:29.885Z,24.70
2018-12-17T03:59:56.806Z,24.43
2018-12-17T04:02:23.858Z,24.72
2018-12-17T04:04:50.801Z,26.00
2018-12-17T04:07:17.516Z,23.70
2018-12-17T04:09:44.313Z,23.22
2018-12-17T04:12:11.894Z,23.38
2018-12-17T04:14:39.419Z,24.75
2018-12-17T04:17:06.167Z,23.80
2018-12-17T04:19:32.899Z,24.12
2018-12-17T04:21:59.620Z,22.70
2018-12-17T04:24:26.319Z,23.98
2018-12-17T04:26:53.042Z,25.68
2018-12-17T04:29:19.746Z,27.27
2018-12-17T04:31:46.474Z,24.35
2018-12-17T04:34:13.231Z,26.85
2018-12-17T04:36:39.978Z,23.90
2018-12-17T04:39:06.764Z,24.37
2018-12-17T04:41:33.554Z,24.60
2018-12-17T04:44:00.271Z,24.52
2018-12-17T04:46:26.979Z,23.32
2018-12-17T04:48:54.171Z,23.95
2018-12-17T04:51:21.015Z,25.27
2018-12-17T04:53:58.172Z,23.67
2018-12-17T04:56:24.907Z,22.17
2018-12-17T04:58:51.629Z,23.55
2018-12-17T05:01:18.393Z,24.75
2018-12-17T05:03:45.145Z,27.55
2018-12-17T05:06:11.880Z,22.37
2018-12-17T05:08:38.647Z,22.50
2018-12-17T05:11:05.358Z,21.15
2018-12-17T05:13:32.105Z,20.12
2018-12-17T05:15:58.819Z,20.95
2018-12-17T05:18:25.541Z,21.40
2018-12-17T05:20:52.340Z,22.75
2018-12-17T05:23:21.254Z,22.50
2018-12-17T05:25:49.972Z,21.45
2018-12-17T05:28:17.908Z,23.73
2018-12-17T05:30:45.438Z,23.62
2018-12-17T05:33:12.587Z,22.52
2018-12-17T05:35:39.335Z,23.18
2018-12-17T05:38:06.046Z,24.00
2018-12-17T05:40:32.781Z,22.80
2018-12-17T05:42:59.513Z,25.88
2018-12-17T05:45:26.317Z,21.37
2018-12-17T05:47:53.031Z,20.82
2018-12-17T05:50:19.911Z,21.17
2018-12-17T05:52:46.664Z,21.45
2018-12-17T05:55:13.412Z,20.37
2018-12-17T05:57:40.400Z,21.55
2018-12-17T06:00:07.364Z,21.87
2018-12-17T06:02:34.073Z,22.95
2018-12-17T06:05:00.810Z,22.10
2018-12-17T06:07:27.530Z,23.85
2018-12-17T06:09:54.274Z,21.75
2018-12-17T06:12:20.985Z,21.70
2018-12-17T06:14:47.705Z,19.52
2018-12-17T06:17:14.506Z,21.30
2018-12-17T06:19:41.220Z,21.15
2018-12-17T06:22:07.953Z,21.27
2018-12-17T06:24:34.706Z,21.73
2018-12-17T06:27:01.442Z,23.25
2018-12-17T06:29:28.182Z,21.40
2018-12-17T06:31:54.922Z,20.43
2018-12-17T06:34:21.646Z,22.10
2018-12-17T06:36:48.702Z,22.20
2018-12-17T06:39:15.468Z,21.12
2018-12-17T06:41:42.187Z,22.50
2018-12-17T06:44:08.991Z,20.60
2018-12-17T06:46:35.708Z,20.82
2018-12-17T06:49:02.445Z,20.02
2018-12-17T06:51:29.349Z,21.42
2018-12-17T06:53:56.083Z,21.60
2018-12-17T06:56:22.826Z,20.95
2018-12-17T06:58:49.578Z,19.27
2018-12-17T07:01:16.330Z,19.85
2018-12-17T07:03:43.048Z,18.30
2018-12-17T07:06:09.786Z,20.90
2018-12-17T07:08:36.522Z,18.85
2018-12-17T07:11:03.223Z,18.40
2018-12-17T07:13:29.940Z,18.00
2018-12-17T07:15:56.670Z,19.05
2018-12-17T07:18:23.377Z,20.82
2018-12-17T07:20:50.158Z,19.32
2018-12-17T07:23:16.910Z,20.12
2018-12-17T07:25:43.662Z,19.60
2018-12-17T07:28:10.357Z,20.80
2018-12-17T07:30:37.078Z,18.90
2018-12-17T07:33:03.837Z,20.32
2018-12-17T07:35:30.548Z,20.80
2018-12-17T07:37:57.256Z,19.45
2018-12-17T07:40:23.977Z,19.02
2018-12-17T07:42:50.688Z,18.45
2018-12-17T07:45:17.408Z,19.80
2018-12-17T07:47:44.160Z,20.25
2018-12-17T07:50:10.886Z,20.32
2018-12-17T07:52:37.611Z,20.72
2018-12-17T07:55:04.878Z,20.30
2018-12-17T07:57:31.618Z,27.87
2018-12-17T07:59:58.463Z,21.90
2018-12-17T08:02:25.187Z,21.20
2018-12-17T08:04:51.899Z,19.12
2018-12-17T08:07:18.658Z,19.67
2018-12-17T08:09:45.379Z,20.55
2018-12-17T08:12:12.084Z,21.35
2018-12-17T08:14:38.801Z,20.25
2018-12-17T08:17:05.722Z,19.90
2018-12-17T08:19:32.509Z,20.35
2018-12-17T08:21:59.221Z,19.80
2018-12-17T08:24:25.960Z,20.68
2018-12-17T08:26:52.686Z,18.75
2018-12-17T08:29:19.438Z,18.85
2018-12-17T08:31:46.779Z,20.45
2018-12-17T08:34:13.502Z,19.40
2018-12-17T08:36:40.563Z,20.75
2018-12-17T08:39:07.279Z,18.70
2018-12-17T08:41:34.004Z,18.85
2018-12-17T08:44:00.734Z,18.92
2018-12-17T08:46:27.458Z,20.57
2018-12-17T08:48:54.178Z,19.10
2018-12-17T08:51:20.909Z,19.65
2018-12-17T08:53:47.654Z,17.73
2018-12-17T08:56:14.375Z,18.92
2018-12-17T08:58:41.088Z,17.80
2018-12-17T12:05:33.443Z,8.88
2018-12-17T12:08:00.216Z,10.03
2018-12-17T12:10:27.521Z,9.30
2018-12-17T12:12:54.274Z,9.30
2018-12-17T12:15:20.986Z,9.55
2018-12-17T12:17:47.786Z,9.88
2018-12-17T12:20:14.523Z,9.98
2018-12-17T12:22:41.231Z,9.23
2018-12-17T12:25:08.423Z,10.18
2018-12-17T12:27:35.117Z,8.70
2018-12-17T12:30:02.083Z,9.63
2018-12-17T12:32:28.967Z,9.45
2018-12-17T12:34:55.924Z,10.72
2018-12-17T12:37:22.677Z,8.80
2018-12-17T12:39:49.390Z,9.65
2018-12-17T12:42:16.136Z,9.45
2018-12-17T12:44:42.880Z,8.75
2018-12-17T12:47:09.613Z,9.18
2018-12-17T12:49:36.313Z,7.85
2018-12-17T12:52:03.069Z,9.60
2018-12-17T12:54:29.777Z,12.13
2018-12-17T12:56:56.519Z,11.78
2018-12-17T12:59:23.279Z,10.72
2018-12-17T13:01:49.987Z,9.60
2018-12-17T13:04:16.688Z,9.18
2018-12-17T13:06:43.432Z,9.83
2018-12-17T13:09:10.150Z,9.08
2018-12-17T13:11:36.841Z,9.90
2018-12-17T13:14:03.570Z,8.90
2018-12-17T13:16:30.289Z,9.50
2018-12-17T13:18:57.022Z,9.90
2018-12-17T13:21:23.721Z,9.10
2018-12-17T13:23:50.425Z,9.45
2018-12-17T13:26:17.157Z,10.00
2018-12-17T13:28:43.877Z,9.58
2018-12-17T13:31:14.658Z,8.60
2018-12-17T13:33:39.404Z,10.05
2018-12-17T13:36:06.767Z,9.80
2018-12-17T13:38:33.526Z,9.28
2018-12-17T13:41:00.245Z,8.18
2018-12-17T13:43:26.958Z,7.65
2018-12-17T13:45:53.686Z,7.95
2018-12-17T13:48:20.425Z,8.10
2018-12-17T13:50:49.076Z,8.45
2018-12-17T13:53:21.982Z,8.35
2018-12-17T13:55:48.685Z,10.30
2018-12-17T13:58:15.448Z,8.10
2018-12-17T14:00:42.165Z,8.93
2018-12-17T14:03:08.884Z,8.43
2018-12-17T14:05:35.625Z,9.50
2018-12-17T14:08:02.330Z,9.35
2018-12-17T14:10:49.644Z,10.10
2018-12-17T14:13:16.362Z,9.40
2018-12-17T14:15:49.018Z,10.20
2018-12-17T14:18:21.586Z,10.75
2018-12-17T14:20:54.126Z,10.30
2018-12-17T14:23:20.866Z,10.78
2018-12-17T14:25:47.573Z,11.15
2018-12-17T14:28:14.286Z,10.50
2018-12-17T14:30:41.147Z,9.78
2018-12-17T14:33:07.927Z,10.00
2018-12-17T14:35:34.645Z,10.10
2018-12-17T14:38:02.255Z,11.08
2018-12-17T14:40:29.476Z,10.95
2018-12-17T14:42:56.182Z,10.72
2018-12-17T14:45:23.018Z,10.25
2018-12-17T14:47:49.725Z,9.45
2018-12-17T14:50:16.430Z,11.08
2018-12-17T14:52:43.154Z,10.98
2018-12-17T14:55:10.149Z,10.88
2018-12-17T14:57:37.033Z,11.20
2018-12-17T15:00:05.202Z,10.38
2018-12-17T15:02:31.941Z,11.10
2018-12-17T15:04:58.698Z,10.10
2018-12-17T15:07:25.416Z,10.85
2018-12-17T15:09:52.184Z,10.15
2018-12-17T15:12:18.938Z,10.30
2018-12-17T15:14:45.639Z,11.30
2018-12-17T15:17:12.341Z,11.35
2018-12-17T15:19:39.104Z,10.90
2018-12-17T15:22:05.811Z,10.72
2018-12-17T15:24:32.543Z,12.23
2018-12-17T15:26:59.384Z,9.93
2018-12-17T15:29:26.093Z,9.60
2018-12-17T15:31:52.844Z,11.60
2018-12-17T15:34:19.546Z,10.75
2018-12-17T15:36:46.237Z,10.72
2018-12-17T15:39:13.230Z,10.82
2018-12-17T15:41:39.949Z,10.90
2018-12-17T15:44:06.661Z,11.40
2018-12-17T15:46:33.422Z,11.50
2018-12-17T15:49:00.181Z,11.78
2018-12-17T15:51:26.931Z,10.43
2018-12-17T15:53:53.672Z,10.45
2018-12-17T15:56:20.374Z,11.20
2018-12-17T15:58:47.094Z,10.08
2018-12-17T16:01:13.886Z,10.60
2018-12-17T16:03:40.608Z,10.20
2018-12-17T16:06:07.328Z,11.33
2018-12-17T16:08:34.085Z,10.60
2018-12-17T16:11:00.796Z,10.85
2018-12-17T16:13:27.506Z,10.15
2018-12-17T16:15:54.293Z,11.25
2018-12-17T16:18:21.061Z,12.13
2018-12-17T16:20:47.910Z,10.95
2018-12-17T16:23:14.634Z,11.73
2018-12-17T16:25:41.335Z,12.10
2018-12-17T16:28:08.291Z,11.55
2018-12-17T16:30:35.099Z,11.03
2018-12-17T16:33:01.900Z,11.15
2018-12-17T16:35:28.788Z,10.28
2018-12-17T16:37:55.614Z,10.72
2018-12-17T16:40:22.504Z,10.70
2018-12-17T16:42:49.456Z,12.82
2018-12-17T16:45:16.175Z,12.23
2018-12-17T16:47:42.926Z,11.80
2018-12-17T16:50:09.762Z,11.20
2018-12-17T16:52:36.502Z,10.48
2018-12-17T16:55:03.336Z,11.22
2018-12-17T16:57:30.085Z,11.93
2018-12-17T16:59:56.805Z,12.23
2018-12-17T17:02:23.545Z,11.83
2018-12-17T17:04:50.258Z,12.30
2018-12-17T17:07:17.107Z,12.95
2018-12-17T17:09:44.318Z,13.15
2018-12-17T17:12:11.101Z,14.20
2018-12-17T17:14:37.883Z,12.73
2018-12-17T17:17:05.397Z,12.98
2018-12-17T17:19:33.516Z,14.58
2018-12-17T17:22:00.887Z,14.58
2018-12-17T17:24:27.671Z,13.38
2018-12-17T17:26:54.462Z,13.53
2018-12-17T17:29:21.193Z,13.90
2018-12-17T17:31:47.910Z,13.32
2018-12-17T17:34:14.943Z,13.98
2018-12-17T17:36:41.705Z,14.95
2018-12-17T17:39:08.586Z,14.75
2018-12-17T17:41:36.906Z,15.25
2018-12-17T17:44:03.638Z,15.20
2018-12-17T17:46:30.408Z,14.35
2018-12-17T17:48:57.122Z,14.80
2018-12-17T17:51:23.893Z,15.40
2018-12-17T17:53:50.756Z,15.10
2018-12-17T17:56:17.618Z,16.02
2018-12-17T17:58:44.440Z,15.15
2018-12-17T18:01:11.270Z,15.58
2018-12-17T18:03:38.052Z,16.45
2018-12-17T18:06:04.808Z,16.23
2018-12-17T18:08:31.632Z,16.17
2018-12-17T18:10:58.417Z,16.80
2018-12-17T18:13:25.208Z,17.52
2018-12-17T18:15:52.005Z,16.80
2018-12-17T18:18:18.879Z,16.23
2018-12-17T18:20:45.835Z,16.93
2018-12-17T18:23:19.395Z,17.90
2018-12-17T18:25:46.319Z,16.45
2018-12-17T18:28:14.824Z,17.42
2018-12-17T18:30:41.716Z,19.60
2018-12-17T18:36:04.229Z,18.32
2018-12-17T18:38:30.954Z,18.25
2018-12-17T18:40:57.710Z,18.45
2018-12-17T18:43:24.449Z,19.95
2018-12-17T18:45:51.175Z,20.02
2018-12-17T18:48:18.094Z,20.40
2018-12-17T18:50:44.833Z,20.82
2018-12-17T18:53:11.567Z,21.90
2018-12-17T18:55:38.362Z,22.07
2018-12-17T18:58:05.104Z,23.02
2018-12-17T19:00:31.823Z,22.67
2018-12-17T19:02:58.670Z,23.38
2018-12-17T19:05:25.378Z,22.80
2018-12-17T19:07:52.120Z,23.42
2018-12-17T19:10:19.018Z,24.75
2018-12-17T19:12:45.745Z,26.48
2018-12-17T19:15:12.522Z,25.85
2018-12-17T19:17:40.484Z,26.12
2018-12-17T19:20:09.336Z,28.00
2018-12-17T19:22:36.251Z,26.23
2018-12-17T19:25:03.202Z,25.08
2018-12-17T19:27:30.899Z,25.05
2018-12-17T19:29:57.631Z,25.08
2018-12-17T19:32:25.758Z,23.73
2018-12-17T19:34:52.659Z,24.70
2018-12-17T19:37:21.357Z,24.90
2018-12-17T19:39:48.351Z,26.12
2018-12-17T19:42:18.559Z,28.60
2018-12-17T19:44:45.425Z,24.10
2018-12-17T19:47:12.368Z,23.47
2018-12-17T19:49:39.319Z,23.22
2018-12-17T19:52:06.119Z,23.20
2018-12-17T19:54:33.266Z,24.10
2018-12-17T19:57:00.898Z,23.38
2018-12-17T19:59:28.142Z,24.77
2018-12-17T20:01:55.018Z,24.57
2018-12-17T20:04:23.428Z,25.12
2018-12-17T20:06:50.967Z,23.90
2018-12-17T20:09:17.766Z,24.32
2018-12-17T20:11:46.830Z,23.98
2018-12-17T20:14:14.347Z,24.12
2018-12-17T20:16:42.036Z,23.35
2018-12-17T20:19:11.512Z,22.77
2018-12-17T20:21:38.951Z,24.15
2018-12-17T20:24:06.394Z,23.20
2018-12-17T20:26:41.861Z,22.40
2018-12-17T20:29:10.275Z,23.57
2018-12-17T20:31:37.036Z,22.32
2018-12-17T20:34:04.291Z,24.82
2018-12-17T20:36:32.000Z,22.13
2018-12-17T20:38:59.346Z,23.00
2018-12-17T20:41:27.025Z,24.45
2018-12-17T20:43:54.375Z,23.00
2018-12-17T20:46:21.908Z,24.95
2018-12-17T20:48:49.246Z,24.40
2018-12-17T20:51:21.416Z,25.08
2018-12-17T20:53:48.270Z,22.85
2018-12-17T20:56:17.802Z,24.95
2018-12-17T20:58:44.692Z,23.22
2018-12-17T21:01:11.507Z,23.92
2018-12-17T21:03:38.333Z,25.12
2018-12-17T21:06:06.486Z,26.27
2018-12-17T21:08:36.667Z,24.85
2018-12-17T21:11:03.422Z,25.27
2018-12-17T21:13:30.237Z,23.38
2018-12-17T21:16:00.265Z,23.15
2018-12-17T21:18:26.994Z,24.77
2018-12-17T21:20:53.699Z,25.70
2018-12-17T21:23:22.336Z,24.47
2018-12-17T21:25:50.258Z,25.08
2018-12-17T21:28:17.525Z,23.70
2018-12-17T21:30:44.754Z,24.87
2018-12-17T21:33:11.540Z,25.95
2018-12-17T21:35:38.349Z,26.25
2018-12-17T21:38:05.174Z,25.40
2018-12-17T21:40:32.025Z,26.68
2018-12-17T21:42:59.554Z,26.00
2018-12-17T21:45:26.289Z,27.85
2018-12-17T21:47:53.020Z,25.27
2018-12-17T21:50:19.737Z,25.45
2018-12-17T21:52:46.501Z,26.10
2018-12-17T21:55:13.223Z,26.90
2018-12-17T21:57:39.987Z,27.55
2018-12-17T22:00:07.108Z,26.62
2018-12-17T22:02:33.806Z,27.67
2018-12-17T22:05:00.511Z,27.60
2018-12-17T22:07:27.253Z,27.55
2018-12-17T22:09:53.965Z,28.15
2018-12-17T22:12:20.716Z,27.27
2018-12-17T22:14:47.462Z,26.82
2018-12-17T22:17:14.185Z,28.50
2018-12-17T22:19:40.953Z,25.85
2018-12-17T22:22:07.678Z,27.15
2018-12-17T22:24:34.415Z,27.32
2018-12-17T22:27:01.181Z,27.87
2018-12-17T22:29:27.924Z,28.07
2018-12-17T22:31:54.693Z,27.13
2018-12-17T22:34:21.441Z,29.23
2018-12-17T22:36:48.177Z,27.95
2018-12-17T22:39:14.896Z,28.60
2018-12-17T22:41:41.655Z,30.97
2018-12-17T22:44:08.372Z,26.80
2018-12-17T22:46:35.098Z,27.62
2018-12-17T22:49:01.881Z,27.07
2018-12-17T22:51:28.596Z,25.57
2018-12-17T22:53:55.319Z,26.07
2018-12-17T22:56:22.072Z,26.07
2018-12-17T22:58:48.808Z,24.50
2018-12-17T23:01:15.581Z,23.90
2018-12-17T23:03:42.332Z,23.42
2018-12-17T23:06:09.060Z,23.73
2018-12-17T23:08:37.032Z,24.87
2018-12-17T23:11:09.720Z,25.85
2018-12-17T23:13:42.229Z,21.97
2018-12-17T23:16:14.899Z,26.70
2018-12-17T23:18:41.413Z,25.97
2018-12-17T23:21:08.139Z,27.32
2018-12-17T23:23:34.883Z,27.35
2018-12-17T23:26:01.655Z,28.50
2018-12-17T23:28:28.368Z,31.07
2018-12-17T23:30:55.140Z,31.25
2018-12-17T23:33:21.859Z,31.00
2018-12-17T23:35:48.649Z,33.15
2018-12-17T23:38:15.408Z,30.62
2018-12-17T23:40:42.126Z,32.90
2018-12-17T23:43:08.849Z,31.75
2018-12-17T23:45:35.584Z,30.92
2018-12-17T23:48:02.355Z,30.40
2018-12-17T23:50:29.092Z,31.23
2018-12-17T23:52:55.972Z,32.83
2018-12-17T23:55:22.716Z,31.00
2018-12-17T23:57:49.428Z,31.40
